createdAt,value
2023-03-05T00:00:19.220Z,1012.4
2023-03-05T00:03:19.141Z,1012.4
2023-03-05T00:06:18.651Z,1012.3
2023-03-05T00:09:19.886Z,1012.3
2023-03-05T00:12:18.977Z,1012.3
2023-03-05T00:15:18.128Z,1012.3
2023-03-05T00:18:18.413Z,1012.2
2023-03-05T00:21:19.236Z,1012.2
2023-03-05T00:24:18.935Z,1012.2
2023-03-05T00:27:18.669Z,1012.2
2023-03-05T00:30:20.000Z,1012.2
2023-03-05T00:33:18.741Z,1012.1
2023-03-05T00:36:18.002Z,1012.1
2023-03-05T00:39:19.069Z,1012.1
2023-03-05T00:42:19.871Z,1012.1
2023-03-05T00:45:18.831Z,1012.1
2023-03-05T00:48:18.480Z,1012.1
2023-03-05T00:51:19.211Z,1012.1
2023-03-05T00:54:18.982Z,1012
2023-03-05T00:57:19.204Z,1012
2023-03-05T01:00:19.242Z,1012
2023-03-05T01:03:19.210Z,1012
2023-03-05T01:06:19.246Z,1012
2023-03-05T01:09:19.242Z,1011.9
2023-03-05T01:12:18.624Z,1011.9
2023-03-05T01:15:18.488Z,1011.8
2023-03-05T01:18:19.008Z,1011.8
2023-03-05T01:21:18.382Z,1011.8
2023-03-05T01:24:19.807Z,1011.8
2023-03-05T01:27:19.198Z,1011.8
2023-03-05T01:30:19.260Z,1011.8
2023-03-05T01:33:18.540Z,1011.7
2023-03-05T01:36:18.219Z,1011.6
2023-03-05T01:39:18.926Z,1011.6
2023-03-05T01:42:18.728Z,1011.5
2023-03-05T01:45:19.096Z,1011.5
2023-03-05T01:48:19.871Z,1011.4
2023-03-05T01:51:18.925Z,1011.4
2023-03-05T01:54:18.934Z,1011.3
2023-03-05T01:57:18.942Z,1011.3
2023-03-05T02:00:19.314Z,1011.3
2023-03-05T02:03:19.181Z,1011.2
2023-03-05T02:06:18.624Z,1011.2
2023-03-05T02:09:19.818Z,1011.2
2023-03-05T02:12:18.395Z,1011.2
2023-03-05T02:15:19.810Z,1011.2
2023-03-05T02:18:18.872Z,1011.2
2023-03-05T02:21:18.680Z,1011.1
2023-03-05T02:24:19.320Z,1011.1
2023-03-05T02:27:18.983Z,1011
2023-03-05T02:30:18.881Z,1011
2023-03-05T02:33:18.942Z,1010.9
2023-03-05T02:36:18.638Z,1010.9
2023-03-05T02:39:18.852Z,1010.9
2023-03-05T02:42:20.111Z,1010.9
2023-03-05T02:45:19.454Z,1010.9
2023-03-05T02:48:19.270Z,1010.9
2023-03-05T02:51:18.703Z,1010.8
2023-03-05T02:54:21.206Z,1010.8
2023-03-05T02:57:18.697Z,1010.8
2023-03-05T03:00:19.230Z,1010.8
2023-03-05T03:03:19.475Z,1010.8
2023-03-05T03:06:19.681Z,1010.8
2023-03-05T03:09:19.531Z,1010.8
2023-03-05T03:12:18.825Z,1010.8
2023-03-05T03:15:18.833Z,1010.7
2023-03-05T03:18:18.468Z,1010.6
2023-03-05T03:21:19.253Z,1010.5
2023-03-05T03:24:20.289Z,1010.5
2023-03-05T03:27:20.236Z,1010.5
2023-03-05T03:30:18.690Z,1010.5
2023-03-05T03:33:19.803Z,1010.4
2023-03-05T03:36:18.963Z,1010.4
2023-03-05T03:39:19.656Z,1010.4
2023-03-05T03:42:18.948Z,1010.4
2023-03-05T03:45:18.921Z,1010.3
2023-03-05T03:48:18.906Z,1010.3
2023-03-05T03:51:18.588Z,1010.3
2023-03-05T03:54:19.916Z,1010.3
2023-03-05T03:57:18.998Z,1010.3
2023-03-05T04:00:18.835Z,1010.2
2023-03-05T04:03:19.113Z,1010.2
2023-03-05T04:06:18.420Z,1010.2
2023-03-05T04:09:20.196Z,1010.2
2023-03-05T04:12:19.321Z,1010.1
2023-03-05T04:15:19.671Z,1010.1
2023-03-05T04:18:19.370Z,1010.1
2023-03-05T04:21:18.831Z,1010.1
2023-03-05T04:24:18.972Z,1010
2023-03-05T04:27:19.120Z,1010
2023-03-05T04:30:18.781Z,1010
2023-03-05T04:33:19.559Z,1009.9
2023-03-05T04:36:19.354Z,1009.9
2023-03-05T04:39:24.059Z,1009.9
2023-03-05T04:42:18.959Z,1009.9
2023-03-05T04:45:19.107Z,1009.9
2023-03-05T04:48:18.992Z,1009.8
2023-03-05T04:51:18.832Z,1009.8
2023-03-05T04:54:18.817Z,1009.7
2023-03-05T04:57:18.530Z,1009.7
2023-03-05T05:02:29.506Z,1009.6
2023-03-05T05:03:20.025Z,1009.6
2023-03-05T05:06:18.834Z,1009.6
2023-03-05T05:09:18.883Z,1009.7
2023-03-05T05:12:19.111Z,1009.7
2023-03-05T05:15:18.891Z,1009.7
2023-03-05T05:18:18.726Z,1009.7
2023-03-05T05:21:20.587Z,1009.6
2023-03-05T05:24:31.344Z,1009.6
2023-03-05T05:27:18.990Z,1009.6
2023-03-05T05:30:18.903Z,1009.5
2023-03-05T05:33:18.579Z,1009.5
2023-03-05T05:36:19.423Z,1009.5
2023-03-05T05:39:20.423Z,1009.5
2023-03-05T05:42:18.840Z,1009.5
2023-03-05T05:45:18.215Z,1009.5
2023-03-05T05:48:19.052Z,1009.6
2023-03-05T05:51:19.421Z,1009.6
2023-03-05T05:54:19.461Z,1009.6
2023-03-05T05:57:19.742Z,1009.5
2023-03-05T06:00:18.660Z,1009.5
2023-03-05T06:03:20.953Z,1009.5
2023-03-05T06:06:20.955Z,1009.5
2023-03-05T06:09:21.854Z,1009.5
2023-03-05T06:12:19.609Z,1009.5
2023-03-05T06:15:19.454Z,1009.5
2023-03-05T06:18:22.059Z,1009.4
2023-03-05T06:21:18.867Z,1009.4
2023-03-05T06:24:18.999Z,1009.4
2023-03-05T06:27:18.884Z,1009.4
2023-03-05T06:30:19.428Z,1009.4
2023-03-05T06:33:19.483Z,1009.4
2023-03-05T06:36:19.312Z,1009.4
2023-03-05T06:39:19.408Z,1009.4
2023-03-05T06:42:19.241Z,1009.4
2023-03-05T06:45:19.413Z,1009.4
2023-03-05T06:48:19.559Z,1009.4
2023-03-05T06:51:20.116Z,1009.4
2023-03-05T06:54:19.087Z,1009.4
2023-03-05T06:57:19.126Z,1009.4
2023-03-05T07:00:19.226Z,1009.4
2023-03-05T07:03:18.720Z,1009.4
2023-03-05T07:06:19.745Z,1009.3
2023-03-05T07:09:19.134Z,1009.3
2023-03-05T07:12:19.700Z,1009.3
2023-03-05T07:15:20.358Z,1009.3
2023-03-05T07:18:19.430Z,1009.3
2023-03-05T07:21:19.276Z,1009.3
2023-03-05T07:24:19.046Z,1009.3
2023-03-05T07:27:19.290Z,1009.3
2023-03-05T07:30:19.264Z,1009.3
2023-03-05T07:33:19.179Z,1009.3
2023-03-05T07:36:19.916Z,1009.3
2023-03-05T07:39:19.670Z,1009.3
2023-03-05T07:42:19.614Z,1009.3
2023-03-05T07:45:19.711Z,1009.2
2023-03-05T07:48:18.588Z,1009.2
2023-03-05T07:51:18.506Z,1009.2
2023-03-05T07:54:18.180Z,1009.2
2023-03-05T07:57:19.869Z,1009.1
2023-03-05T08:00:19.094Z,1009.1
2023-03-05T08:03:19.032Z,1009.1
2023-03-05T08:06:19.302Z,1009
2023-03-05T08:09:20.162Z,1009
2023-03-05T08:12:19.080Z,1009
2023-03-05T08:15:18.772Z,1009
2023-03-05T08:18:18.789Z,1009
2023-03-05T08:21:18.379Z,1009
2023-03-05T08:24:18.625Z,1009
2023-03-05T08:27:19.241Z,1009
2023-03-05T08:30:19.184Z,1009
2023-03-05T08:33:18.878Z,1009
2023-03-05T08:36:18.369Z,1009
2023-03-05T08:39:19.712Z,1009
2023-03-05T08:42:18.542Z,1008.9
2023-03-05T08:45:18.999Z,1008.9
2023-03-05T08:48:18.342Z,1008.9
2023-03-05T08:51:18.770Z,1008.9
2023-03-05T08:54:18.454Z,1009
2023-03-05T08:57:19.606Z,1008.9
2023-03-05T09:00:19.236Z,1008.9
2023-03-05T09:03:18.620Z,1008.9
2023-03-05T09:06:18.790Z,1008.8
2023-03-05T09:09:19.107Z,1008.8
2023-03-05T09:12:23.469Z,1008.7
2023-03-05T09:15:18.942Z,1008.7
2023-03-05T09:18:18.259Z,1008.7
2023-03-05T09:21:18.750Z,1008.7
2023-03-05T09:24:18.070Z,1008.6
2023-03-05T09:27:18.901Z,1008.6
2023-03-05T09:30:18.846Z,1008.7
2023-03-05T09:33:18.408Z,1008.6
2023-03-05T09:36:19.213Z,1008.6
2023-03-05T09:39:18.695Z,1008.6
2023-03-05T09:42:18.256Z,1008.6
2023-03-05T09:45:19.019Z,1008.6
2023-03-05T09:48:18.705Z,1008.6
2023-03-05T09:51:18.645Z,1008.6
2023-03-05T09:54:18.046Z,1008.6
2023-03-05T09:57:18.641Z,1008.6
2023-03-05T10:00:19.256Z,1008.6
2023-03-05T10:03:18.784Z,1008.6
2023-03-05T10:06:18.133Z,1008.6
2023-03-05T10:09:18.781Z,1008.6
2023-03-05T10:12:18.430Z,1008.6
2023-03-05T10:15:18.909Z,1008.6
2023-03-05T10:18:18.919Z,1008.6
2023-03-05T10:21:18.415Z,1008.6
2023-03-05T10:24:18.781Z,1008.5
2023-03-05T10:27:19.808Z,1008.5
2023-03-05T10:30:18.388Z,1008.5
2023-03-05T10:33:18.910Z,1008.4
2023-03-05T10:36:18.319Z,1008.4
2023-03-05T10:39:18.958Z,1008.4
2023-03-05T10:42:18.225Z,1008.3
2023-03-05T10:45:20.622Z,1008.3
2023-03-05T10:48:18.284Z,1008.3
2023-03-05T10:51:19.156Z,1008.2
2023-03-05T10:54:18.729Z,1008.3
2023-03-05T10:57:18.371Z,1008.3
2023-03-05T11:00:37.605Z,1008.4
2023-03-05T11:03:19.131Z,1008.5
2023-03-05T11:06:18.667Z,1008.6
2023-03-05T11:09:18.484Z,1008.6
2023-03-05T11:12:23.256Z,1008.5
2023-03-05T11:15:19.057Z,1008.4
2023-03-05T11:18:18.891Z,1008.4
2023-03-05T11:21:18.666Z,1008.3
2023-03-05T11:24:19.311Z,1008.2
2023-03-05T11:27:18.991Z,1008.1
2023-03-05T11:30:18.369Z,1008.1
2023-03-05T11:33:19.269Z,1008
2023-03-05T11:36:18.749Z,1007.9
2023-03-05T11:39:18.765Z,1007.9
2023-03-05T11:42:18.670Z,1007.8
2023-03-05T11:45:18.467Z,1007.8
2023-03-05T11:48:19.099Z,1007.7
2023-03-05T11:51:18.851Z,1007.7
2023-03-05T11:54:18.195Z,1007.6
2023-03-05T11:57:18.703Z,1007.5
2023-03-05T12:00:18.304Z,1007.5
2023-03-05T12:03:19.190Z,1007.4
2023-03-05T12:06:18.467Z,1007.3
2023-03-05T12:09:18.209Z,1007.3
2023-03-05T12:12:18.666Z,1007.2
2023-03-05T12:15:18.460Z,1007.3
2023-03-05T12:18:19.255Z,1007.3
2023-03-05T12:21:18.648Z,1007.3
2023-03-05T12:24:18.838Z,1007.4
2023-03-05T12:27:18.296Z,1007.5
2023-03-05T12:30:19.203Z,1007.4
2023-03-05T12:33:18.778Z,1007.3
2023-03-05T12:36:19.270Z,1007.2
2023-03-05T12:39:19.173Z,1007.1
2023-03-05T12:42:18.992Z,1007.1
2023-03-05T12:45:18.443Z,1007.1
2023-03-05T12:48:18.976Z,1007
2023-03-05T12:51:18.365Z,1007
2023-03-05T12:54:19.338Z,1006.9
2023-03-05T12:57:19.235Z,1006.9
2023-03-05T13:00:18.980Z,1006.9
2023-03-05T13:03:18.635Z,1006.9
2023-03-05T13:06:18.047Z,1006.8
2023-03-05T13:09:18.821Z,1006.8
2023-03-05T13:12:18.837Z,1006.7
2023-03-05T13:15:18.470Z,1006.7
2023-03-05T13:18:18.385Z,1006.6
2023-03-05T13:21:18.890Z,1006.6
2023-03-05T13:24:18.660Z,1006.5
2023-03-05T13:27:18.583Z,1006.4
2023-03-05T13:30:19.457Z,1006.4
2023-03-05T13:33:18.473Z,1006.4
2023-03-05T13:36:18.306Z,1006.4
2023-03-05T13:39:19.279Z,1006.4
2023-03-05T13:42:18.456Z,1006.3
2023-03-05T13:45:19.171Z,1006.3
2023-03-05T13:48:19.192Z,1006.2
2023-03-05T13:51:19.226Z,1006.2
2023-03-05T13:54:19.088Z,1006.1
2023-03-05T13:57:19.545Z,1006
2023-03-05T14:00:19.153Z,1006
2023-03-05T14:03:19.876Z,1006
2023-03-05T14:06:19.136Z,1006
2023-03-05T14:09:18.925Z,1005.9
2023-03-05T14:12:18.944Z,1005.9
2023-03-05T14:15:19.095Z,1005.9
2023-03-05T14:18:19.270Z,1005.9
2023-03-05T14:21:18.892Z,1005.8
2023-03-05T14:24:19.232Z,1005.8
2023-03-05T14:27:18.841Z,1005.8
2023-03-05T14:30:18.522Z,1005.7
2023-03-05T14:33:18.354Z,1005.7
2023-03-05T14:36:19.097Z,1005.6
2023-03-05T14:39:18.616Z,1005.6
2023-03-05T14:42:19.251Z,1005.6
2023-03-05T14:45:18.969Z,1005.5
2023-03-05T14:48:18.596Z,1005.5
2023-03-05T14:51:19.252Z,1005.5
2023-03-05T14:54:18.707Z,1005.5
2023-03-05T14:57:18.344Z,1005.4
2023-03-05T15:00:18.922Z,1005.4
2023-03-05T15:03:18.588Z,1005.4
2023-03-05T15:06:24.102Z,1005.3
2023-03-05T15:09:19.011Z,1005.3
2023-03-05T15:12:18.407Z,1005.3
2023-03-05T15:15:19.069Z,1005.3
2023-03-05T15:18:18.926Z,1005.2
2023-03-05T15:21:18.698Z,1005.2
2023-03-05T15:24:18.057Z,1005.2
2023-03-05T15:27:18.566Z,1005.2
2023-03-05T15:30:18.779Z,1005.1
2023-03-05T15:33:18.085Z,1005.1
2023-03-05T15:36:18.329Z,1005.1
2023-03-05T15:39:19.266Z,1005.1
2023-03-05T15:42:26.656Z,1005
2023-03-05T15:45:18.164Z,1005
2023-03-05T15:48:18.891Z,1005
2023-03-05T15:51:18.277Z,1005
2023-03-05T15:54:19.195Z,1004.9
2023-03-05T15:57:18.584Z,1004.9
2023-03-05T16:00:19.354Z,1004.9
2023-03-05T16:03:19.255Z,1004.9
2023-03-05T16:09:18.067Z,1004.8
2023-03-05T16:12:18.454Z,1004.8
2023-03-05T16:15:19.276Z,1004.8
2023-03-05T16:18:18.671Z,1004.7
2023-03-05T16:21:18.322Z,1004.7
2023-03-05T16:24:20.270Z,1004.7
2023-03-05T16:27:18.610Z,1004.6
2023-03-05T16:30:19.043Z,1004.6
2023-03-05T16:33:18.543Z,1004.6
2023-03-05T16:36:18.996Z,1004.6
2023-03-05T16:39:18.508Z,1004.6
2023-03-05T16:42:18.984Z,1004.6
2023-03-05T16:45:18.335Z,1004.6
2023-03-05T16:48:18.777Z,1004.6
2023-03-05T16:51:20.929Z,1004.6
2023-03-05T16:54:18.352Z,1004.5
2023-03-05T16:57:18.404Z,1004.5
2023-03-05T17:00:18.870Z,1004.5
2023-03-05T17:03:18.290Z,1004.5
2023-03-05T17:06:18.821Z,1004.5
2023-03-05T17:09:18.980Z,1004.5
2023-03-05T17:12:18.606Z,1004.5
2023-03-05T17:15:19.052Z,1004.5
2023-03-05T17:18:18.557Z,1004.4
2023-03-05T17:21:18.876Z,1004.4
2023-03-05T17:24:20.644Z,1004.4
2023-03-05T17:27:19.477Z,1004.4
2023-03-05T17:30:19.175Z,1004.4
2023-03-05T17:33:18.575Z,1004.4
2023-03-05T17:36:18.897Z,1004.3
2023-03-05T17:39:18.306Z,1004.3
2023-03-05T17:42:19.760Z,1004.3
2023-03-05T17:45:18.459Z,1004.3
2023-03-05T17:48:18.933Z,1004.2
2023-03-05T17:51:18.410Z,1004.3
2023-03-05T17:54:18.714Z,1004.3
2023-03-05T17:57:18.302Z,1004.3
2023-03-05T18:00:18.638Z,1004.3
2023-03-05T18:03:18.125Z,1004.3
2023-03-05T18:06:18.821Z,1004.3
2023-03-05T18:09:19.233Z,1004.2
2023-03-05T18:12:18.788Z,1004.2
2023-03-05T18:15:19.052Z,1004.2
2023-03-05T18:18:18.685Z,1004.2
2023-03-05T18:21:18.501Z,1004.1
2023-03-05T18:24:18.851Z,1004.1
2023-03-05T18:27:18.241Z,1004.1
2023-03-05T18:30:18.343Z,1004.1
2023-03-05T18:33:18.737Z,1004
2023-03-05T18:36:18.511Z,1004
2023-03-05T18:39:18.872Z,1003.9
2023-03-05T18:42:17.920Z,1003.9
2023-03-05T18:45:18.456Z,1003.9
2023-03-05T18:48:18.689Z,1003.8
2023-03-05T18:51:18.724Z,1003.8
2023-03-05T18:54:19.148Z,1003.8
2023-03-05T18:57:19.051Z,1003.8
2023-03-05T19:00:18.448Z,1003.8
2023-03-05T19:03:18.777Z,1003.7
2023-03-05T19:06:17.973Z,1003.7
2023-03-05T19:09:18.284Z,1003.7
2023-03-05T19:12:18.468Z,1003.6
2023-03-05T19:15:19.284Z,1003.6
2023-03-05T19:18:18.648Z,1003.6
2023-03-05T19:21:18.402Z,1003.6
2023-03-05T19:24:18.733Z,1003.5
2023-03-05T19:27:18.032Z,1003.5
2023-03-05T19:30:21.527Z,1003.5
2023-03-05T19:33:19.147Z,1003.5
2023-03-05T19:36:18.337Z,1003.5
2023-03-05T19:39:18.338Z,1003.4
2023-03-05T19:42:19.077Z,1003.4
2023-03-05T19:45:18.266Z,1003.4
2023-03-05T19:48:19.013Z,1003.4
2023-03-05T19:51:18.916Z,1003.4
2023-03-05T19:54:18.147Z,1003.4
2023-03-05T19:57:19.260Z,1003.3
2023-03-05T20:00:20.304Z,1003.3
2023-03-05T20:03:19.972Z,1003.2
2023-03-05T20:06:18.391Z,1003.2
2023-03-05T20:09:19.139Z,1003.2
2023-03-05T20:12:18.121Z,1003.1
2023-03-05T20:15:18.553Z,1003.1
2023-03-05T20:18:19.509Z,1003
2023-03-05T20:21:17.975Z,1003
2023-03-05T20:24:18.134Z,1003
2023-03-05T20:27:18.485Z,1003
2023-03-05T20:30:19.017Z,1003
2023-03-05T20:33:18.174Z,1003
2023-03-05T20:36:18.329Z,1003
2023-03-05T20:39:18.443Z,1002.9
2023-03-05T20:42:24.295Z,1002.9
2023-03-05T20:45:18.725Z,1002.9
2023-03-05T20:48:18.899Z,1002.9
2023-03-05T20:51:18.315Z,1002.9
2023-03-05T20:54:17.818Z,1002.8
2023-03-05T20:57:18.128Z,1002.8
2023-03-05T21:00:18.526Z,1002.8
2023-03-05T21:03:18.984Z,1002.8
2023-03-05T21:06:18.325Z,1002.7
2023-03-05T21:09:18.705Z,1002.7
2023-03-05T21:12:18.817Z,1002.6
2023-03-05T21:15:18.448Z,1002.6
2023-03-05T21:18:18.445Z,1002.5
2023-03-05T21:21:18.407Z,1002.5
2023-03-05T21:24:18.717Z,1002.5
2023-03-05T21:27:18.048Z,1002.5
2023-03-05T21:30:18.051Z,1002.4
2023-03-05T21:33:18.304Z,1002.4
2023-03-05T21:36:19.531Z,1002.3
2023-03-05T21:39:17.980Z,1002.3
2023-03-05T21:42:18.393Z,1002.3
2023-03-05T21:45:18.721Z,1002.3
2023-03-05T21:48:18.689Z,1002.2
2023-03-05T21:51:18.828Z,1002.2
2023-03-05T21:54:18.487Z,1002.2
2023-03-05T21:57:17.717Z,1002.2
2023-03-05T22:00:18.266Z,1002.1
2023-03-05T22:03:18.475Z,1002.1
2023-03-05T22:06:18.641Z,1002.1
2023-03-05T22:09:18.369Z,1002.1
2023-03-05T22:12:18.717Z,1002
2023-03-05T22:15:18.016Z,1002
2023-03-05T22:18:18.368Z,1002
2023-03-05T22:21:18.463Z,1002
2023-03-05T22:24:18.613Z,1001.9
2023-03-05T22:27:18.063Z,1001.9
2023-03-05T22:30:19.600Z,1001.9
2023-03-05T22:33:18.073Z,1001.9
2023-03-05T22:36:18.659Z,1001.9
2023-03-05T22:39:17.945Z,1001.8
2023-03-05T22:42:18.172Z,1001.8
2023-03-05T22:45:18.674Z,1001.8
2023-03-05T22:48:18.054Z,1001.7
2023-03-05T22:51:18.396Z,1001.7
2023-03-05T22:54:18.904Z,1001.7
2023-03-05T22:57:18.427Z,1001.6
2023-03-05T23:00:18.741Z,1001.6
2023-03-05T23:03:18.732Z,1001.6
2023-03-05T23:06:17.950Z,1001.6
2023-03-05T23:09:17.931Z,1001.6
2023-03-05T23:12:18.842Z,1001.6
2023-03-05T23:15:18.341Z,1001.6
2023-03-05T23:18:18.581Z,1001.6
2023-03-05T23:21:18.003Z,1001.6
2023-03-05T23:24:24.269Z,1001.6
2023-03-05T23:27:18.401Z,1001.6
2023-03-05T23:30:18.991Z,1001.6
2023-03-05T23:33:18.362Z,1001.6
2023-03-05T23:36:18.829Z,1001.6
2023-03-05T23:39:17.940Z,1001.5
2023-03-05T23:42:18.440Z,1001.5
2023-03-05T23:45:18.766Z,1001.5
2023-03-05T23:48:18.237Z,1001.5
2023-03-05T23:51:18.481Z,1001.5
2023-03-05T23:54:18.776Z,1001.5
2023-03-05T23:57:17.979Z,1001.5
